Date,TemperatureHighF,TemperatureAvgF,TemperatureLowF,DewpointHighF,DewpointAvgF,DewpointLowF,HumidityHigh,HumidityAvg,HumidityLow,PressureMaxIn,PressureMinIn,WindSpeedMaxMPH,WindSpeedAvgMPH,GustSpeedMaxMPH,PrecipitationSumIn
2013-1-1,32,23,9,16,2,-14,56,39,33,29.84,29.58,0,0,0,0.00
2013-1-2,28,12,0,8,-10,-21,58,35,30,30.02,29.78,0,0,0,0.00
2013-1-3,30,13,1,3,-12,-21,42,32,26,30.02,29.87,0,0,0,0.00
2013-1-4,40,23,2,15,-1,-23,49,35,29,29.87,29.67,0,0,0,0.00
2013-1-5,34,28,14,18,7,0,59,42,31,30.17,29.69,0,0,0,0.04
2013-1-6,35,24,13,17,9,0,69,53,43,30.11,29.81,0,0,0,0.00
2013-1-7,37,25,9,24,7,-8,78,47,30,30.29,29.87,0,0,0,0.00
2013-1-8,50,23,4,18,3,-12,59,43,26,30.29,30.11,0,0,0,0.00
2013-1-9,45,32,15,19,13,6,71,48,32,30.31,29.84,0,0,0,0.00
2013-1-10,43,38,30,23,14,10,57,37,32,30.43,29.87,0,0,0,0.04
2013-1-11,46,34,21,28,16,10,80,51,29,30.43,30.14,0,0,0,0.00
2013-1-12,40,36,34,34,30,27,82,78,71,30.14,30.05,0,0,0,0.00
2013-1-13,40,36,34,37,33,29,93,86,78,30.05,29.87,0,0,0,0.00
2013-1-14,59,41,34,41,26,14,96,59,30,30.17,29.78,0,0,0,0.00
2013-1-15,43,34,27,27,14,9,74,45,29,30.23,30.14,0,0,0,0.00
2013-1-16,45,35,29,26,18,13,70,50,39,30.17,29.72,0,0,0,0.00
2013-1-17,45,29,17,26,11,-9,75,47,30,30.05,29.72,0,0,0,0.00
2013-1-18,25,13,6,-7,-13,-20,34,29,24,30.29,29.99,0,0,0,0.00
2013-1-19,33,22,8,12,2,-14,53,41,34,30.23,29.75,0,0,0,0.00
2013-1-20,44,29,19,26,8,-10,69,44,25,29.81,29.43,0,0,0,0.00
2013-1-21,27,19,7,8,-6,-19,60,33,24,29.96,29.72,0,0,0,0.00
2013-1-22,29,17,1,10,-1,-17,65,46,27,29.96,29.69,0,0,0,0.00
2013-1-23,14,3,-4,-4,-14,-21,44,44,44,30.05,29.93,0,0,0,0.00
2013-1-24,16,4,-6,-4,-18,-24,44,36,26,30.11,29.93,0,0,0,0.00
2013-1-25,25,10,0,-3,-17,-26,34,27,22,30.17,29.96,0,0,0,0.00
2013-1-26,20,12,7,-7,-15,-20,35,27,24,30.11,29.90,0,0,0,0.00
2013-1-27,23,14,8,-6,-14,-20,34,27,25,30.34,30.11,0,0,0,0.00
2013-1-28,36,19,6,9,-4,-21,58,37,24,30.34,29.96,0,0,0,0.00
2013-1-29,48,30,12,27,13,-1,79,50,29,30.11,29.96,0,0,0,0.00
2013-1-30,47,39,32,37,27,20,92,65,41,30.05,29.37,0,0,0,0.00
2013-1-31,56,41,25,55,24,1,98,57,29,29.43,28.84,0,0,0,0.00
2013-2-1,33,23,15,10,-1,-8,55,36,30,29.96,29.43,0,0,0,0.00
2013-2-2,24,18,9,6,-3,-12,55,39,32,30.11,29.93,0,0,0,0.00
2013-2-3,30,22,13,9,4,1,70,47,32,29.96,29.64,0,0,0,0.00
2013-2-4,31,22,14,7,-2,-13,61,36,23,29.78,29.61,0,0,0,0.00
2013-2-5,38,20,3,4,-6,-21,59,31,21,29.93,29.78,0,0,0,0.00
2013-2-6,41,26,16,15,4,-13,64,39,25,30.20,29.84,0,0,0,0.00
2013-2-7,38,21,8,4,-10,-19,34,25,20,30.43,30.20,0,0,0,0.00
2013-2-8,24,17,13,7,0,-12,64,48,25,30.40,29.75,0,0,0,0.00
2013-2-9,20,16,9,14,0,-11,79,52,37,30.11,29.69,0,0,0,0.00
2013-2-10,36,18,4,0,-7,-16,45,33,19,30.29,30.11,0,0,0,0.00
2013-2-11,40,25,9,21,8,-8,73,50,39,30.26,29.55,0,0,0,0.00
2013-2-12,46,35,27,32,19,13,87,54,34,29.75,29.52,0,0,0,0.00
2013-2-13,48,36,24,18,12,8,56,38,28,29.78,29.67,0,0,0,0.00
2013-2-14,48,34,21,20,12,0,62,40,27,29.90,29.64,0,0,0,0.00
2013-2-15,57,36,21,20,4,0,62,21,30,29.90,29.78,0,0,0,0.00
2013-2-16,41,32,24,0,0,0,0,0,100,29.87,29.69,0,0,0,0.00
2013-2-17,25,17,0,0,0,0,0,0,100,29.69,29.34,0,0,0,0.00
2013-2-18,31,18,9,0,0,0,0,0,100,29.99,29.58,0,0,0,0.00
2013-2-19,48,29,12,0,0,0,0,0,100,30.05,29.52,0,0,0,0.00
2013-2-20,38,31,23,0,0,0,0,0,100,29.64,29.46,0,0,0,0.00
2013-2-21,31,23,15,0,0,0,0,0,100,30.14,29.64,0,0,0,0.00
2013-2-22,53,31,12,0,0,0,0,0,100,30.31,30.14,0,0,0,0.00
2013-2-23,35,32,28,0,0,0,0,0,100,30.23,29.90,0,0,0,0.00
2013-2-24,37,33,32,0,0,0,0,0,100,29.90,29.69,0,0,0,0.00
2013-2-25,43,35,30,0,0,0,0,0,100,30.14,29.84,0,0,0,0.00
2013-2-26,40,35,32,0,0,0,0,0,100,30.26,30.14,0,0,0,0.00
2013-2-27,35,34,32,0,0,0,0,0,100,30.14,29.61,0,0,0,0.00
2013-2-28,50,39,32,0,0,0,0,0,100,29.61,29.46,0,0,0,0.00
2013-3-1,38,34,28,0,0,0,0,0,100,29.64,29.49,0,0,0,0.00
2013-3-2,41,34,29,0,0,0,0,0,100,29.64,29.58,0,0,0,0.00
2013-3-3,40,32,27,0,0,0,0,0,100,29.61,29.52,0,0,0,0.00
2013-3-4,37,29,25,0,0,0,0,0,100,29.75,29.55,0,0,0,0.00
2013-3-5,51,36,25,0,0,0,0,0,100,30.05,29.72,0,0,0,0.00
2013-3-6,42,36,32,0,0,0,0,0,100,30.14,30.02,0,0,0,0.00
2013-3-7,44,35,30,0,0,0,0,0,100,30.14,30.02,0,0,0,0.00
2013-3-8,50,36,26,0,0,0,0,0,100,30.17,29.96,0,0,0,0.00
2013-3-9,62,37,19,0,0,0,0,0,100,30.31,30.14,0,0,0,0.00
2013-3-10,53,37,21,0,0,0,0,0,100,30.34,30.23,0,0,0,0.00
2013-3-11,58,42,32,0,0,0,0,0,100,30.26,30.08,0,0,0,0.00
2013-3-12,53,43,34,0,0,0,0,0,100,30.08,29.67,0,0,0,0.00
2013-3-13,50,42,30,0,0,0,0,0,100,29.75,29.67,0,0,0,0.00
2013-3-14,40,29,17,0,0,0,0,0,100,29.78,29.64,0,0,0,0.00
2013-3-15,46,27,14,0,0,0,0,0,100,29.81,29.58,0,0,0,0.00
2013-3-16,34,28,20,0,0,0,0,0,100,29.87,29.64,0,0,0,0.00
2013-3-17,30,22,13,0,0,0,0,0,100,30.26,29.84,0,0,0,0.00
2013-3-18,46,28,6,0,0,0,0,0,100,30.37,30.20,0,0,0,0.00
2013-3-19,37,29,24,0,0,0,0,0,100,30.20,29.72,0,0,0,0.00
2013-3-20,40,32,24,0,0,0,0,0,100,29.72,29.64,0,0,0,0.00
2013-3-21,46,28,17,0,0,0,0,0,100,29.75,29.72,0,0,0,0.00
2013-4-16,68,59,55,48,37,27,76,47,23,29.68,29.47,0,0,0,0.00
2013-4-17,63,52,36,48,22,14,81,34,18,29.83,29.50,0,0,0,0.00
2013-4-18,62,42,29,26,18,13,64,42,19,29.91,29.77,0,0,0,0.00